Time;durP1;ratioP1;P1;durP2;ratioP2;P2;SDS_P1;SDS_P2;PMS_P1;PMS_P2;Temp;Humidity;BMP_temperature;BMP_pressure;BME280_temperature;BME280_humidity;BME280_pressure;Samples;Min_cycle;Max_cycle;Signal;HPM_P1;HPM_P2
2022/08/21 00:00:15;;;;;;;11.35;3.50;;;;;;;;;;5089308;28;20051;-64
2022/08/21 00:02:50;;;;;;;8.48;3.55;;;;;;;;;;5089213;28;20055;-65
2022/08/21 00:05:21;;;;;;;8.35;3.67;;;;;;;;;;5019042;28;20044;-64
2022/08/21 00:07:52;;;;;;;9.75;3.50;;;;;;;;;;5049320;28;20056;-64
2022/08/21 00:10:23;;;;;;;9.43;4.10;;;;;;;;;;5039270;28;20061;-64
2022/08/21 00:12:54;;;;;;;7.95;3.22;;;;;;;;;;5089136;28;20051;-64
2022/08/21 00:15:28;;;;;;;8.15;3.42;;;;;;;;;;5089338;28;20044;-64
2022/08/21 00:17:59;;;;;;;8.80;3.30;;;;;;;;;;5092429;28;20059;-63
2022/08/21 00:20:29;;;;;;;7.82;3.22;;;;;;;;;;5093009;28;20052;-64
2022/08/21 00:23:00;;;;;;;8.05;3.30;;;;;;;;;;5076149;28;20052;-64
2022/08/21 00:25:31;;;;;;;9.75;3.33;;;;;;;;;;5059010;28;20052;-64
2022/08/21 00:28:02;;;;;;;9.38;3.33;;;;;;;;;;5058801;28;20083;-63
2022/08/21 00:30:33;;;;;;;8.27;3.45;;;;;;;;;;5075987;28;20056;-66
2022/08/21 00:33:03;;;;;;;9.45;3.63;;;;;;;;;;5092534;28;20087;-63
2022/08/21 00:35:37;;;;;;;9.80;3.55;;;;;;;;;;5051698;28;20055;-63
2022/08/21 00:38:08;;;;;;;8.57;3.63;;;;;;;;;;5052088;28;20053;-63
2022/08/21 00:40:49;;;;;;;8.73;3.35;;;;;;;;;;5036359;28;20068;-64
2022/08/21 00:43:24;;;;;;;7.45;3.50;;;;;;;;;;5064930;28;20063;-64
2022/08/21 00:45:55;;;;;;;7.50;3.55;;;;;;;;;;5055536;28;20052;-64
2022/08/21 00:48:27;;;;;;;8.20;3.65;;;;;;;;;;5072027;28;20420;-65
2022/08/21 00:51:06;;;;;;;9.07;3.70;;;;;;;;;;5054992;28;20053;-64
2022/08/21 00:53:41;;;;;;;7.63;3.67;;;;;;;;;;5055402;28;20508;-65
2022/08/21 00:56:23;;;;;;;8.48;3.42;;;;;;;;;;5071704;28;20049;-65
2022/08/21 00:58:55;;;;;;;9.00;4.10;;;;;;;;;;5071753;28;20447;-65
2022/08/21 01:01:27;;;;;;;10.30;4.13;;;;;;;;;;5071687;28;20431;-65
2022/08/21 01:03:58;;;;;;;8.95;4.65;;;;;;;;;;5071654;28;20112;-65
2022/08/21 01:06:28;;;;;;;13.32;4.13;;;;;;;;;;5067985;28;20052;-66
2022/08/21 01:08:58;;;;;;;7.65;3.92;;;;;;;;;;5093987;28;20397;-65
2022/08/21 01:11:29;;;;;;;7.68;3.50;;;;;;;;;;5093974;28;20048;-65
2022/08/21 01:14:00;;;;;;;9.25;3.63;;;;;;;;;;5075168;28;20495;-65
2022/08/21 01:16:30;;;;;;;8.75;3.22;;;;;;;;;;5093736;28;20407;-65
2022/08/21 01:19:01;;;;;;;9.90;4.63;;;;;;;;;;5093803;28;20396;-65
2022/08/21 01:21:31;;;;;;;10.20;3.58;;;;;;;;;;5093661;28;20051;-65
2022/08/21 01:24:01;;;;;;;8.68;3.80;;;;;;;;;;5094001;28;20395;-65
2022/08/21 01:26:37;;;;;;;8.32;3.75;;;;;;;;;;5092465;28;20040;-65
2022/08/21 01:29:26;;;;;;;8.15;3.70;;;;;;;;;;5093610;28;20059;-65
2022/08/21 01:31:57;;;;;;;9.07;3.85;;;;;;;;;;5074641;28;20384;-65
2022/08/21 01:34:28;;;;;;;8.98;3.92;;;;;;;;;;5093587;28;20047;-65
2022/08/21 01:36:59;;;;;;;8.88;3.78;;;;;;;;;;5090903;28;20059;-65
2022/08/21 01:39:29;;;;;;;10.85;3.67;;;;;;;;;;5091240;28;20052;-65
2022/08/21 01:42:00;;;;;;;9.25;4.10;;;;;;;;;;5070428;28;20053;-65
2022/08/21 01:44:31;;;;;;;9.90;3.50;;;;;;;;;;5070840;28;20059;-65
2022/08/21 01:47:05;;;;;;;7.65;3.80;;;;;;;;;;5030639;28;20049;-65
2022/08/21 01:49:37;;;;;;;9.20;3.67;;;;;;;;;;5010776;28;20053;-65
2022/08/21 01:52:07;;;;;;;9.82;3.45;;;;;;;;;;5010809;28;20053;-65
2022/08/21 01:54:39;;;;;;;8.38;3.83;;;;;;;;;;4994871;28;20057;-65
2022/08/21 01:57:10;;;;;;;8.45;3.90;;;;;;;;;;5010890;28;20053;-65
2022/08/21 01:59:40;;;;;;;12.43;4.80;;;;;;;;;;4994809;28;20069;-65
2022/08/21 02:02:10;;;;;;;12.73;4.63;;;;;;;;;;5010796;28;20070;-65
2022/08/21 02:04:40;;;;;;;8.15;4.05;;;;;;;;;;5010607;28;20053;-65
2022/08/21 02:07:13;;;;;;;11.38;4.57;;;;;;;;;;4971094;28;20047;-65
2022/08/21 02:09:43;;;;;;;9.35;4.50;;;;;;;;;;4952154;29;20052;-65
2022/08/21 02:12:13;;;;;;;9.48;3.83;;;;;;;;;;4904728;29;20062;-65
2022/08/21 02:14:43;;;;;;;10.50;4.00;;;;;;;;;;4941568;29;20063;-65
2022/08/21 02:17:14;;;;;;;6.97;4.03;;;;;;;;;;4933007;29;20082;-65
2022/08/21 02:19:45;;;;;;;8.40;3.75;;;;;;;;;;4954043;28;20635;-65
2022/08/21 02:22:15;;;;;;;12.38;4.13;;;;;;;;;;4971433;28;20413;-65
2022/08/21 02:24:45;;;;;;;9.88;4.90;;;;;;;;;;4982257;28;20086;-64
2022/08/21 02:27:24;;;;;;;9.10;4.75;;;;;;;;;;4986774;28;20408;-65
2022/08/21 02:29:57;;;;;;;8.13;4.18;;;;;;;;;;5029965;28;20050;-64
2022/08/21 02:32:27;;;;;;;9.50;3.80;;;;;;;;;;5029882;28;20057;-64
2022/08/21 02:34:57;;;;;;;10.07;4.40;;;;;;;;;;5032800;28;20496;-64
2022/08/21 02:37:27;;;;;;;13.50;4.28;;;;;;;;;;5033682;28;20155;-64
2022/08/21 02:39:59;;;;;;;10.93;3.88;;;;;;;;;;5049618;28;20068;-64
2022/08/21 02:42:30;;;;;;;8.80;3.75;;;;;;;;;;5049420;28;20551;-64
2022/08/21 02:45:00;;;;;;;8.20;4.28;;;;;;;;;;5044645;28;20470;-64
2022/08/21 02:47:31;;;;;;;9.20;4.13;;;;;;;;;;5069675;28;20056;-64
2022/08/21 02:50:01;;;;;;;10.02;3.92;;;;;;;;;;5053519;28;20044;-64
2022/08/21 02:52:31;;;;;;;9.93;3.65;;;;;;;;;;5081186;28;20048;-64
2022/08/21 02:55:02;;;;;;;8.23;4.55;;;;;;;;;;5032659;28;20048;-64
2022/08/21 02:57:33;;;;;;;8.60;4.15;;;;;;;;;;5049602;28;20064;-65
2022/08/21 03:00:05;;;;;;;11.65;4.00;;;;;;;;;;5049623;28;20084;-64
2022/08/21 03:02:35;;;;;;;;;;;;;;;;;;4958316;28;20042;-64
2022/08/21 03:05:08;;;;;;;9.10;4.10;;;;;;;;;;4990474;28;20414;-65
2022/08/21 03:07:39;;;;;;;9.98;4.50;;;;;;;;;;4989967;28;20101;-64
2022/08/21 03:10:09;;;;;;;9.80;4.53;;;;;;;;;;4990033;28;20065;-64
2022/08/21 03:12:40;;;;;;;9.32;4.22;;;;;;;;;;4989981;28;20513;-64
2022/08/21 03:15:13;;;;;;;9.35;4.35;;;;;;;;;;4990281;28;20054;-64
2022/08/21 03:17:44;;;;;;;10.75;4.20;;;;;;;;;;4990130;28;20061;-64
2022/08/21 03:20:18;;;;;;;10.55;4.57;;;;;;;;;;4990255;28;20050;-64
2022/08/21 03:22:49;;;;;;;9.93;4.22;;;;;;;;;;4990132;28;20055;-64
2022/08/21 03:25:23;;;;;;;11.90;4.22;;;;;;;;;;4990216;28;20069;-64
2022/08/21 03:28:12;;;;;;;10.48;4.13;;;;;;;;;;4989938;28;20050;-64
2022/08/21 03:30:44;;;;;;;10.60;4.70;;;;;;;;;;4990178;28;20817;-64
2022/08/21 03:33:15;;;;;;;8.88;3.95;;;;;;;;;;5035028;28;20072;-64
2022/08/21 03:35:55;;;;;;;9.85;4.20;;;;;;;;;;5048997;28;20041;-64
2022/08/21 03:38:28;;;;;;;10.82;4.53;;;;;;;;;;5049247;28;20069;-64
2022/08/21 03:40:59;;;;;;;9.75;4.63;;;;;;;;;;5081846;28;20431;-66
2022/08/21 03:43:32;;;;;;;9.63;4.43;;;;;;;;;;5089524;28;20048;-64
2022/08/21 03:46:04;;;;;;;9.98;4.15;;;;;;;;;;5039458;28;20048;-64
2022/08/21 03:48:36;;;;;;;14.27;4.20;;;;;;;;;;5106110;28;20392;-64
2022/08/21 03:51:07;;;;;;;11.93;4.53;;;;;;;;;;5109948;28;20529;-64
2022/08/21 03:53:38;;;;;;;9.52;4.43;;;;;;;;;;5113675;28;20055;-64
2022/08/21 03:56:09;;;;;;;10.93;4.28;;;;;;;;;;5097064;28;20044;-64
2022/08/21 03:58:39;;;;;;;9.43;4.10;;;;;;;;;;5096953;28;20048;-64
2022/08/21 04:01:09;;;;;;;8.65;3.97;;;;;;;;;;5096810;28;20074;-64
2022/08/21 04:03:39;;;;;;;8.90;4.07;;;;;;;;;;5055432;28;20040;-64
2022/08/21 04:06:10;;;;;;;13.05;4.13;;;;;;;;;;5032593;28;20072;-64
2022/08/21 04:08:42;;;;;;;13.52;4.22;;;;;;;;;;5032398;28;20049;-64
2022/08/21 04:11:14;;;;;;;9.27;4.25;;;;;;;;;;5032638;28;20054;-64
2022/08/21 04:13:46;;;;;;;10.23;4.80;;;;;;;;;;4987512;28;20064;-64
2022/08/21 04:16:17;;;;;;;9.27;4.68;;;;;;;;;;5013198;28;20580;-64
2022/08/21 04:18:48;;;;;;;11.40;4.15;;;;;;;;;;5012430;28;20056;-63
2022/08/21 04:21:18;;;;;;;9.68;4.65;;;;;;;;;;4980081;28;20050;-65
2022/08/21 04:23:55;;;;;;;9.38;4.20;;;;;;;;;;5012671;28;20058;-65
2022/08/21 04:26:26;;;;;;;8.50;4.40;;;;;;;;;;5012898;28;20053;-65
2022/08/21 04:28:58;;;;;;;12.43;4.00;;;;;;;;;;5012530;28;20054;-64
2022/08/21 04:31:31;;;;;;;9.60;4.32;;;;;;;;;;4973519;28;20062;-65
2022/08/21 04:34:01;;;;;;;10.23;4.00;;;;;;;;;;4989077;28;20047;-65
2022/08/21 04:36:33;;;;;;;8.70;4.03;;;;;;;;;;4957251;28;20091;-65
2022/08/21 04:39:04;;;;;;;9.70;4.05;;;;;;;;;;4989307;28;20058;-65
2022/08/21 04:41:37;;;;;;;8.82;4.20;;;;;;;;;;4981429;28;20055;-65
2022/08/21 04:44:08;;;;;;;9.07;3.92;;;;;;;;;;4986102;28;20069;-65
2022/08/21 04:46:39;;;;;;;9.02;3.75;;;;;;;;;;4992887;28;20553;-65
2022/08/21 04:49:09;;;;;;;10.50;4.30;;;;;;;;;;4992676;28;20510;-65
2022/08/21 04:51:41;;;;;;;11.27;3.97;;;;;;;;;;5031451;28;20555;-65
2022/08/21 04:54:19;;;;;;;10.55;4.55;;;;;;;;;;5031807;28;20064;-65
2022/08/21 04:57:07;;;;;;;12.18;4.45;;;;;;;;;;4973087;28;20062;-65
2022/08/21 04:59:46;;;;;;;9.82;4.60;;;;;;;;;;4953810;29;20051;-65
2022/08/21 05:02:17;;;;;;;10.70;4.57;;;;;;;;;;4937581;29;20067;-64
2022/08/21 05:04:53;;;;;;;9.50;4.45;;;;;;;;;;4953657;29;20059;-65
2022/08/21 05:07:29;;;;;;;8.52;3.90;;;;;;;;;;4953383;29;20070;-65
2022/08/21 05:10:12;;;;;;;10.05;4.43;;;;;;;;;;4921907;29;20066;-65
2022/08/21 05:12:44;;;;;;;10.25;3.83;;;;;;;;;;4989614;28;20058;-65
2022/08/21 05:15:14;;;;;;;11.50;4.10;;;;;;;;;;4992098;28;20042;-65
2022/08/21 05:17:45;;;;;;;9.52;4.03;;;;;;;;;;4992111;28;20058;-65
2022/08/21 05:20:29;;;;;;;11.57;4.35;;;;;;;;;;5031455;28;20526;-65
2022/08/21 05:22:59;;;;;;;8.13;3.72;;;;;;;;;;5030370;28;20067;-64
2022/08/21 05:25:29;;;;;;;9.10;4.03;;;;;;;;;;5071315;28;20534;-65
2022/08/21 05:27:59;;;;;;;9.10;4.10;;;;;;;;;;5054455;28;20048;-65
2022/08/21 05:30:31;;;;;;;15.48;4.18;;;;;;;;;;5071343;28;20463;-67
2022/08/21 05:33:04;;;;;;;11.07;3.80;;;;;;;;;;5071202;28;20504;-65
2022/08/21 05:35:34;;;;;;;10.15;4.05;;;;;;;;;;5040629;28;20192;-65
2022/08/21 05:38:05;;;;;;;8.85;3.53;;;;;;;;;;5091530;28;20620;-65
2022/08/21 05:40:47;;;;;;;13.15;5.07;;;;;;;;;;5091218;28;20087;-65
2022/08/21 05:43:17;;;;;;;7.85;3.38;;;;;;;;;;5091413;28;20056;-65
2022/08/21 05:45:48;;;;;;;8.13;4.00;;;;;;;;;;5091031;28;20067;-65
2022/08/21 05:48:24;;;;;;;11.80;4.25;;;;;;;;;;5070728;28;20052;-65
2022/08/21 05:50:54;;;;;;;8.95;4.63;;;;;;;;;;5030518;28;20045;-65
2022/08/21 05:53:26;;;;;;;9.55;4.00;;;;;;;;;;5050605;28;20049;-65
2022/08/21 05:55:56;;;;;;;9.27;3.97;;;;;;;;;;5050582;28;20060;-65
2022/08/21 05:58:26;;;;;;;8.02;3.55;;;;;;;;;;5034446;28;20060;-64
2022/08/21 06:00:56;;;;;;;8.05;3.88;;;;;;;;;;5050602;28;20468;-65
2022/08/21 06:03:30;;;;;;;7.07;3.60;;;;;;;;;;5050490;28;20060;-64
2022/08/21 06:06:01;;;;;;;10.38;4.60;;;;;;;;;;5050476;28;20440;-64
2022/08/21 06:08:32;;;;;;;9.05;3.90;;;;;;;;;;5017214;28;20579;-65
2022/08/21 06:11:03;;;;;;;14.20;4.10;;;;;;;;;;5050462;28;20065;-65
2022/08/21 06:13:34;;;;;;;9.68;4.63;;;;;;;;;;5050276;28;20755;-64
2022/08/21 06:16:12;;;;;;;9.68;3.65;;;;;;;;;;5050281;28;20061;-65
2022/08/21 06:18:45;;;;;;;8.65;3.60;;;;;;;;;;5050411;28;20057;-64
2022/08/21 06:21:16;;;;;;;10.70;4.35;;;;;;;;;;5017138;28;20064;-64
2022/08/21 06:23:47;;;;;;;9.45;3.95;;;;;;;;;;5050385;28;20057;-65
2022/08/21 06:26:18;;;;;;;9.32;3.90;;;;;;;;;;5063192;28;20056;-65
2022/08/21 06:28:47;;;;;;;9.73;3.63;;;;;;;;;;5069865;28;20507;-64
2022/08/21 06:31:21;;;;;;;9.60;4.10;;;;;;;;;;5095381;28;20074;-64
2022/08/21 06:33:53;;;;;;;9.02;4.18;;;;;;;;;;5110469;28;20055;-65
2022/08/21 06:36:23;;;;;;;8.98;3.75;;;;;;;;;;5089797;28;20048;-65
2022/08/21 06:38:54;;;;;;;8.93;3.92;;;;;;;;;;5053615;28;20455;-65
2022/08/21 06:41:26;;;;;;;9.85;4.28;;;;;;;;;;5019834;28;20060;-65
2022/08/21 06:43:58;;;;;;;9.18;4.22;;;;;;;;;;5029712;28;20052;-64
2022/08/21 06:46:30;;;;;;;8.40;4.00;;;;;;;;;;5029920;28;20115;-65
2022/08/21 06:49:00;;;;;;;7.60;4.05;;;;;;;;;;5029899;28;20053;-65
2022/08/21 06:51:31;;;;;;;9.77;4.03;;;;;;;;;;5029702;28;20061;-64
2022/08/21 06:54:01;;;;;;;9.23;3.90;;;;;;;;;;5029900;28;20061;-64
2022/08/21 06:56:34;;;;;;;10.25;3.72;;;;;;;;;;5029735;28;20086;-64
2022/08/21 06:59:05;;;;;;;9.52;4.05;;;;;;;;;;5029957;28;20057;-64
2022/08/21 07:01:36;;;;;;;10.18;3.60;;;;;;;;;;5029621;28;20068;-65
2022/08/21 07:04:07;;;;;;;7.47;3.78;;;;;;;;;;4996838;28;20161;-64
2022/08/21 07:06:37;;;;;;;8.48;3.60;;;;;;;;;;5029659;28;20065;-64
2022/08/21 07:09:09;;;;;;;9.40;3.65;;;;;;;;;;4999124;28;20045;-64
2022/08/21 07:11:39;;;;;;;9.48;4.40;;;;;;;;;;5016371;28;20466;-64
2022/08/21 07:14:16;;;;;;;8.68;3.75;;;;;;;;;;5061836;28;20052;-64
2022/08/21 07:16:50;;;;;;;8.80;3.60;;;;;;;;;;5053236;28;20044;-64
2022/08/21 07:19:20;;;;;;;;;;;;;;;;;;5029904;28;20053;-64
2022/08/21 07:21:50;;;;;;;8.93;3.50;;;;;;;;;;5025442;28;19931;-64
2022/08/21 07:24:20;;;;;;;9.52;3.58;;;;;;;;;;5016541;28;20053;-64
2022/08/21 07:26:51;;;;;;;12.57;3.38;;;;;;;;;;5036784;28;20045;-64
2022/08/21 07:29:21;;;;;;;8.32;3.42;;;;;;;;;;5053335;28;20048;-64
2022/08/21 07:31:52;;;;;;;8.23;3.70;;;;;;;;;;5073141;28;20088;-64
2022/08/21 07:34:22;;;;;;;8.20;3.33;;;;;;;;;;5073447;28;20053;-64
2022/08/21 07:36:52;;;;;;;8.32;3.65;;;;;;;;;;5073380;28;20056;-64
2022/08/21 07:39:23;;;;;;;9.52;3.45;;;;;;;;;;5073427;28;20404;-64
2022/08/21 07:41:54;;;;;;;7.53;3.42;;;;;;;;;;5073288;28;20073;-64
2022/08/21 07:44:24;;;;;;;8.00;3.60;;;;;;;;;;5056371;28;20044;-64
2022/08/21 07:46:54;;;;;;;9.65;3.17;;;;;;;;;;5072967;28;20420;-64
2022/08/21 07:49:24;;;;;;;10.45;3.15;;;;;;;;;;5073059;28;20056;-64
2022/08/21 07:51:56;;;;;;;8.30;3.35;;;;;;;;;;5072956;28;20049;-66
2022/08/21 07:54:27;;;;;;;7.25;3.35;;;;;;;;;;5073180;28;20091;-64
2022/08/21 07:57:02;;;;;;;6.60;3.30;;;;;;;;;;5060620;28;20043;-64
2022/08/21 07:59:32;;;;;;;8.40;3.28;;;;;;;;;;5022972;28;20052;-64
2022/08/21 08:02:03;;;;;;;6.55;3.63;;;;;;;;;;5072779;28;20061;-64
2022/08/21 08:04:33;;;;;;;8.73;3.42;;;;;;;;;;5072610;28;20052;-64
2022/08/21 08:07:03;;;;;;;7.78;3.83;;;;;;;;;;5061951;28;20057;-66
2022/08/21 08:09:34;;;;;;;8.60;3.58;;;;;;;;;;5063447;28;20063;-64
2022/08/21 08:12:05;;;;;;;12.88;4.15;;;;;;;;;;5072818;28;20056;-64
2022/08/21 08:14:35;;;;;;;8.25;3.70;;;;;;;;;;5072724;28;20060;-64
2022/08/21 08:17:05;;;;;;;10.02;4.18;;;;;;;;;;5056207;28;20436;-64
2022/08/21 08:19:35;;;;;;;8.88;4.07;;;;;;;;;;5056299;28;20566;-65
2022/08/21 08:22:17;;;;;;;9.15;3.50;;;;;;;;;;5072401;28;20389;-64
2022/08/21 08:24:48;;;;;;;9.77;4.43;;;;;;;;;;5072672;28;20052;-65
2022/08/21 08:27:19;;;;;;;7.53;3.42;;;;;;;;;;5056099;28;20045;-65
2022/08/21 08:29:50;;;;;;;9.23;3.97;;;;;;;;;;5051973;28;20045;-65
2022/08/21 08:32:20;;;;;;;10.43;4.30;;;;;;;;;;5052158;28;20068;-64
2022/08/21 08:34:52;;;;;;;8.45;3.65;;;;;;;;;;5052304;28;20409;-66
2022/08/21 08:37:22;;;;;;;9.80;3.63;;;;;;;;;;5063125;28;20053;-64
2022/08/21 08:40:02;;;;;;;8.55;3.63;;;;;;;;;;5032308;28;20532;-64
2022/08/21 08:42:36;;;;;;;7.28;3.35;;;;;;;;;;5012234;28;20061;-64
2022/08/21 08:45:11;;;;;;;8.68;3.92;;;;;;;;;;5012301;28;20066;-64
2022/08/21 08:47:57;;;;;;;8.77;3.58;;;;;;;;;;4979627;28;20053;-64
2022/08/21 08:50:56;;;;;;;7.60;3.63;;;;;;;;;;4992387;28;20050;-64
2022/08/21 08:53:26;;;;;;;8.95;3.65;;;;;;;;;;4992710;28;20051;-64
2022/08/21 08:55:57;;;;;;;9.20;3.65;;;;;;;;;;4992376;28;20453;-64
2022/08/21 08:58:31;;;;;;;9.15;3.72;;;;;;;;;;4992702;28;20062;-65
2022/08/21 09:01:05;;;;;;;8.20;3.17;;;;;;;;;;4969860;28;20414;-64
2022/08/21 09:03:39;;;;;;;8.38;4.15;;;;;;;;;;4992194;28;20526;-64
2022/08/21 09:06:51;;;;;;;11.52;4.07;;;;;;;;;;4992226;28;20062;-64
2022/08/21 09:09:42;;;;;;;8.82;4.43;;;;;;;;;;4953479;28;20420;-65
2022/08/21 09:12:32;;;;;;;9.10;4.00;;;;;;;;;;4953640;28;20614;-64
2022/08/21 09:15:22;;;;;;;8.77;3.42;;;;;;;;;;4924161;29;20070;-65
2022/08/21 09:18:17;;;;;;;7.47;3.38;;;;;;;;;;4963649;28;20046;-64
2022/08/21 09:21:26;;;;;;;10.40;3.47;;;;;;;;;;4963766;28;20059;-65
2022/08/21 09:24:23;;;;;;;8.10;3.88;;;;;;;;;;4953442;29;20060;-65
2022/08/21 09:27:09;;;;;;;10.18;4.60;;;;;;;;;;4937558;29;20054;-65
2022/08/21 09:29:50;;;;;;;6.70;2.85;;;;;;;;;;4992208;28;20550;-64
2022/08/21 09:32:24;;;;;;;10.25;4.05;;;;;;;;;;4975824;28;20069;-64
2022/08/21 09:35:17;;;;;;;9.65;4.07;;;;;;;;;;4991814;28;20058;-65
2022/08/21 09:38:07;;;;;;;8.25;3.42;;;;;;;;;;4991871;28;20062;-64
2022/08/21 09:40:45;;;;;;;9.82;3.72;;;;;;;;;;5001704;28;20546;-64
2022/08/21 09:43:20;;;;;;;7.65;3.47;;;;;;;;;;5030795;28;20045;-64
2022/08/21 09:46:06;;;;;;;7.85;3.25;;;;;;;;;;5024114;28;20501;-64
2022/08/21 09:49:01;;;;;;;10.30;4.07;;;;;;;;;;4995309;28;20058;-64
2022/08/21 09:51:37;;;;;;;7.97;3.30;;;;;;;;;;4943081;28;20073;-65
2022/08/21 09:54:08;;;;;;;8.57;4.15;;;;;;;;;;4991943;28;20062;-64
2022/08/21 09:59:47;;;;;;;10.82;3.60;;;;;;;;;;4991841;28;20109;-64
2022/08/21 10:02:29;;;;;;;9.68;4.05;;;;;;;;;;4993830;28;20058;-64
2022/08/21 10:05:22;;;;;;;7.82;3.90;;;;;;;;;;5010687;28;20410;-64
2022/08/21 10:07:53;;;;;;;6.72;3.33;;;;;;;;;;5010888;28;20409;-64
2022/08/21 10:10:37;;;;;;;8.82;3.78;;;;;;;;;;5010628;28;20158;-64
2022/08/21 10:13:21;;;;;;;8.82;3.30;;;;;;;;;;5010931;28;20052;-64
2022/08/21 10:16:06;;;;;;;8.43;3.40;;;;;;;;;;4994880;28;20058;-64
2022/08/21 10:18:52;;;;;;;9.07;3.92;;;;;;;;;;4995134;28;20049;-64
2022/08/21 10:21:51;;;;;;;8.43;3.70;;;;;;;;;;4996714;28;20058;-64
2022/08/21 10:24:33;;;;;;;8.20;4.07;;;;;;;;;;4991142;28;20075;-64
2022/08/21 10:27:17;;;;;;;9.57;4.40;;;;;;;;;;4990506;28;20046;-64
2022/08/21 10:30:05;;;;;;;13.10;5.65;;;;;;;;;;5069188;28;20068;-64
2022/08/21 10:32:59;;;;;;;10.00;4.13;;;;;;;;;;5069897;28;20048;-64
2022/08/21 10:35:55;;;;;;;10.63;4.22;;;;;;;;;;5036557;28;20519;-64
2022/08/21 10:38:43;;;;;;;9.25;4.97;;;;;;;;;;5054070;28;20060;-63
2022/08/21 10:41:45;;;;;;;10.70;4.60;;;;;;;;;;5070016;28;20051;-64
2022/08/21 10:44:15;;;;;;;;;;;;;;;;;;5070199;28;20048;-64
2022/08/21 10:46:51;;;;;;;8.00;3.53;;;;;;;;;;5070063;28;19920;-64
2022/08/21 10:49:40;;;;;;;9.13;4.13;;;;;;;;;;5036574;28;20047;-64
2022/08/21 10:52:23;;;;;;;12.70;4.57;;;;;;;;;;5069428;28;20056;-64
2022/08/21 10:55:04;;;;;;;9.63;4.63;;;;;;;;;;5069895;28;20044;-65
2022/08/21 10:57:50;;;;;;;13.95;5.32;;;;;;;;;;5036428;28;20055;-64
2022/08/21 11:00:23;;;;;;;9.68;4.82;;;;;;;;;;5048950;28;20060;-65
2022/08/21 11:03:05;;;;;;;11.60;6.10;;;;;;;;;;5049790;28;20516;-65
2022/08/21 11:06:19;;;;;;;11.45;6.00;;;;;;;;;;4993162;28;20049;-64
2022/08/21 11:08:57;;;;;;;17.10;6.50;;;;;;;;;;4932213;29;20439;-64
2022/08/21 11:11:42;;;;;;;13.90;5.80;;;;;;;;;;4913632;29;20060;-65
2022/08/21 11:14:42;;;;;;;12.43;6.55;;;;;;;;;;4913432;29;20056;-65
2022/08/21 11:17:41;;;;;;;19.52;7.05;;;;;;;;;;4913475;29;20489;-64
2022/08/21 11:20:18;;;;;;;18.88;8.52;;;;;;;;;;4913578;29;20063;-65
2022/08/21 11:23:06;;;;;;;18.77;8.73;;;;;;;;;;4866713;29;20580;-65
2022/08/21 11:25:41;;;;;;;22.25;9.68;;;;;;;;;;4867392;29;20056;-65
2022/08/21 11:28:37;;;;;;;17.80;9.45;;;;;;;;;;4932286;29;20048;-66
2022/08/21 11:31:32;;;;;;;21.13;8.02;;;;;;;;;;4916542;29;20115;-65
2022/08/21 11:34:26;;;;;;;20.67;9.02;;;;;;;;;;4932430;29;20067;-66
2022/08/21 11:37:26;;;;;;;18.73;8.85;;;;;;;;;;4914741;29;20067;-65
2022/08/21 11:40:05;;;;;;;18.77;8.75;;;;;;;;;;4932367;29;20056;-65
2022/08/21 11:42:50;;;;;;;19.67;9.73;;;;;;;;;;4932030;29;20060;-65
2022/08/21 11:45:40;;;;;;;20.70;10.00;;;;;;;;;;4917771;29;20067;-65
2022/08/21 11:48:28;;;;;;;18.35;9.02;;;;;;;;;;4970186;28;20054;-65
2022/08/21 11:51:01;;;;;;;16.42;8.77;;;;;;;;;;4969998;28;20042;-65
2022/08/21 11:53:54;;;;;;;20.80;8.82;;;;;;;;;;4994102;28;20069;-65
2022/08/21 11:56:31;;;;;;;19.30;8.98;;;;;;;;;;4963760;28;20065;-65
2022/08/21 11:59:09;;;;;;;23.00;9.85;;;;;;;;;;4970185;28;20059;-65
2022/08/21 12:01:44;;;;;;;19.23;8.50;;;;;;;;;;4989791;28;20061;-65
2022/08/21 12:04:31;;;;;;;18.80;8.48;;;;;;;;;;4919231;28;20059;-65
2022/08/21 12:07:36;;;;;;;22.38;9.38;;;;;;;;;;4951172;28;20055;-65
2022/08/21 12:10:16;;;;;;;17.77;7.30;;;;;;;;;;4951218;28;20139;-65
2022/08/21 12:12:47;;;;;;;14.43;6.53;;;;;;;;;;4952551;28;20407;-65
2022/08/21 12:15:26;;;;;;;7.90;3.60;;;;;;;;;;4986136;28;20066;-65
2022/08/21 12:18:03;;;;;;;8.70;3.97;;;;;;;;;;4993317;28;20073;-65
2022/08/21 12:20:41;;;;;;;6.90;3.38;;;;;;;;;;4977464;28;20062;-65
2022/08/21 12:23:43;;;;;;;6.32;2.17;;;;;;;;;;4973681;28;20051;-64
2022/08/21 12:26:26;;;;;;;6.85;1.60;;;;;;;;;;4947805;28;20185;-65
2022/08/21 12:29:17;;;;;;;4.97;2.30;;;;;;;;;;4959968;28;20074;-66
2022/08/21 12:31:53;;;;;;;6.28;2.65;;;;;;;;;;4973722;28;20730;-66
2022/08/21 12:34:54;;;;;;;5.70;2.28;;;;;;;;;;4974149;28;20627;-66
2022/08/21 12:37:43;;;;;;;6.78;2.63;;;;;;;;;;5012663;28;20409;-65
2022/08/21 12:40:31;;;;;;;5.68;2.53;;;;;;;;;;5012545;28;20073;-66
2022/08/21 12:43:02;;;;;;;6.50;2.50;;;;;;;;;;5032157;28;20057;-66
2022/08/21 12:45:45;;;;;;;6.45;2.63;;;;;;;;;;5052137;28;20056;-66
2022/08/21 12:48:32;;;;;;;7.10;3.00;;;;;;;;;;5036253;28;20401;-66
2022/08/21 12:51:29;;;;;;;7.95;3.15;;;;;;;;;;5037048;28;20049;-65
2022/08/21 12:54:00;;;;;;;7.30;3.03;;;;;;;;;;4984221;28;20057;-66
2022/08/21 12:56:33;;;;;;;5.70;2.60;;;;;;;;;;5012307;28;20074;-65
2022/08/21 12:59:07;;;;;;;5.95;2.70;;;;;;;;;;4980485;28;20536;-65
2022/08/21 13:01:51;;;;;;;8.77;3.35;;;;;;;;;;5012149;28;20057;-65
2022/08/21 13:04:49;;;;;;;4.93;1.77;;;;;;;;;;4925198;28;20050;-65
2022/08/21 13:07:29;;;;;;;5.25;1.77;;;;;;;;;;4934544;29;20448;-65
2022/08/21 13:10:03;;;;;;;7.18;2.30;;;;;;;;;;4919237;29;20055;-65
2022/08/21 13:12:35;;;;;;;4.72;2.42;;;;;;;;;;4934576;29;20153;-65
2022/08/21 13:15:06;;;;;;;9.25;2.55;;;;;;;;;;4923009;29;20519;-65
2022/08/21 13:17:41;;;;;;;4.13;1.60;;;;;;;;;;4934526;29;20066;-65
2022/08/21 13:20:29;;;;;;;5.05;2.00;;;;;;;;;;4918510;29;20531;-66
2022/08/21 13:23:02;;;;;;;4.40;2.10;;;;;;;;;;4925636;29;20154;-66
2022/08/21 13:25:37;;;;;;;5.13;2.05;;;;;;;;;;4914898;29;20059;-66
2022/08/21 13:28:11;;;;;;;6.55;2.35;;;;;;;;;;4899585;29;20064;-65
2022/08/21 13:30:58;;;;;;;4.35;1.92;;;;;;;;;;4928385;29;20063;-66
2022/08/21 13:33:31;;;;;;;7.32;2.72;;;;;;;;;;4953317;29;20043;-66
2022/08/21 13:36:20;;;;;;;7.45;3.95;;;;;;;;;;4953325;29;20127;-66
2022/08/21 13:38:55;;;;;;;6.35;3.45;;;;;;;;;;4952981;29;20059;-66
2022/08/21 13:41:35;;;;;;;4.53;2.30;;;;;;;;;;4958352;28;20059;-66
2022/08/21 13:44:21;;;;;;;5.60;2.38;;;;;;;;;;5008140;28;20531;-66
2022/08/21 13:46:53;;;;;;;4.88;2.30;;;;;;;;;;5070949;28;20148;-66
2022/08/21 13:49:30;;;;;;;5.93;2.88;;;;;;;;;;5070985;28;20092;-66
2022/08/21 13:52:01;;;;;;;4.15;2.40;;;;;;;;;;5026242;28;20055;-66
2022/08/21 13:54:39;;;;;;;5.00;1.77;;;;;;;;;;5037729;28;20053;-66
2022/08/21 13:57:25;;;;;;;4.70;2.17;;;;;;;;;;5071118;28;20063;-66
2022/08/21 14:00:36;;;;;;;5.32;2.00;;;;;;;;;;5037511;28;20052;-66
2022/08/21 14:03:11;;;;;;;4.25;2.17;;;;;;;;;;5011048;28;20061;-66
2022/08/21 14:05:47;;;;;;;3.63;1.70;;;;;;;;;;4978565;28;20410;-66
2022/08/21 14:08:42;;;;;;;5.25;2.70;;;;;;;;;;4995114;28;20057;-66
2022/08/21 14:11:13;;;;;;;5.38;2.88;;;;;;;;;;4997195;28;20053;-66
2022/08/21 14:14:19;;;;;;;2.78;1.65;;;;;;;;;;4994934;28;20064;-67
2022/08/21 14:17:26;;;;;;;3.70;1.80;;;;;;;;;;4971734;28;20058;-66
2022/08/21 14:20:03;;;;;;;4.55;2.10;;;;;;;;;;4920644;29;20062;-67
2022/08/21 14:22:41;;;;;;;3.75;2.10;;;;;;;;;;4933030;29;20055;-67
2022/08/21 14:25:17;;;;;;;2.30;1.33;;;;;;;;;;4918123;29;20063;-66
2022/08/21 14:28:02;;;;;;;5.43;2.35;;;;;;;;;;4914213;29;20060;-67
2022/08/21 14:30:41;;;;;;;3.45;1.63;;;;;;;;;;4882788;29;20056;-66
2022/08/21 14:33:21;;;;;;;6.82;2.15;;;;;;;;;;4913745;29;20048;-63
2022/08/21 14:35:52;;;;;;;3.75;1.60;;;;;;;;;;4898586;29;20413;-64
2022/08/21 14:38:25;;;;;;;3.55;1.70;;;;;;;;;;4922095;29;20052;-64
2022/08/21 14:41:04;;;;;;;3.83;1.50;;;;;;;;;;4877479;29;20069;-63
2022/08/21 14:43:34;;;;;;;3.75;1.30;;;;;;;;;;4894983;29;20076;-64
2022/08/21 14:46:04;;;;;;;4.38;1.48;;;;;;;;;;4894915;29;20064;-65
2022/08/21 14:48:35;;;;;;;2.95;1.55;;;;;;;;;;4879535;29;20126;-64
2022/08/21 14:51:06;;;;;;;3.95;1.33;;;;;;;;;;4879021;29;20061;-64
2022/08/21 14:53:36;;;;;;;3.67;1.55;;;;;;;;;;4930381;29;20516;-64
2022/08/21 14:56:10;;;;;;;4.22;1.48;;;;;;;;;;4953841;28;20049;-64
2022/08/21 14:58:44;;;;;;;4.57;1.60;;;;;;;;;;5005932;28;20454;-64
2022/08/21 15:01:16;;;;;;;2.65;1.48;;;;;;;;;;4990533;28;20422;-67
2022/08/21 15:03:48;;;;;;;3.58;1.60;;;;;;;;;;5022534;28;20058;-66
2022/08/21 15:06:20;;;;;;;4.25;1.50;;;;;;;;;;4957700;28;20058;-67
2022/08/21 15:08:51;;;;;;;3.35;1.95;;;;;;;;;;4990702;28;20487;-67
2022/08/21 15:11:24;;;;;;;3.42;1.50;;;;;;;;;;5004128;28;20501;-65
2022/08/21 15:14:15;;;;;;;3.03;1.55;;;;;;;;;;5010509;28;20053;-64
2022/08/21 15:16:46;;;;;;;3.63;1.40;;;;;;;;;;5042228;28;20060;-65
2022/08/21 15:19:17;;;;;;;3.67;1.90;;;;;;;;;;5049782;28;20539;-63
2022/08/21 15:21:47;;;;;;;3.75;1.48;;;;;;;;;;5000053;28;20045;-64
2022/08/21 15:24:18;;;;;;;3.88;1.60;;;;;;;;;;5049969;28;20056;-64
2022/08/21 15:26:48;;;;;;;3.60;1.10;;;;;;;;;;5049518;28;20048;-64
2022/08/21 15:29:19;;;;;;;3.75;1.30;;;;;;;;;;5049607;28;20061;-63
2022/08/21 15:31:58;;;;;;;3.10;1.33;;;;;;;;;;4984483;28;20053;-64
2022/08/21 15:34:30;;;;;;;4.35;1.27;;;;;;;;;;5009824;28;20147;-64
2022/08/21 15:37:01;;;;;;;2.90;1.40;;;;;;;;;;5025626;28;20069;-64